sensor_id;sensor_type;location;lat;lon;timestamp;P1;durP1;ratioP1;P2;durP2;ratioP2
1048;SDS011;513;51.444;7.196;2023-10-13T00:00:37;23.17;;;16.40;;
1048;SDS011;513;51.444;7.196;2023-10-13T00:03:05;24.73;;;15.57;;
1048;SDS011;513;51.444;7.196;2023-10-13T00:05:40;24.08;;;15.85;;
1048;SDS011;513;51.444;7.196;2023-10-13T00:08:07;21.45;;;15.77;;
1048;SDS011;513;51.444;7.196;2023-10-13T00:10:34;23.85;;;16.05;;
1048;SDS011;513;51.444;7.196;2023-10-13T00:13:02;21.43;;;15.40;;
1048;SDS011;513;51.444;7.196;2023-10-13T00:15:39;23.50;;;15.70;;
1048;SDS011;513;51.444;7.196;2023-10-13T00:18:11;22.27;;;15.32;;
1048;SDS011;513;51.444;7.196;2023-10-13T00:20:39;23.30;;;15.73;;
1048;SDS011;513;51.444;7.196;2023-10-13T00:23:12;22.33;;;15.25;;
1048;SDS011;513;51.444;7.196;2023-10-13T00:25:39;21.73;;;14.95;;
1048;SDS011;513;51.444;7.196;2023-10-13T00:28:14;20.27;;;14.75;;
1048;SDS011;513;51.444;7.196;2023-10-13T00:30:50;21.83;;;14.10;;
1048;SDS011;513;51.444;7.196;2023-10-13T00:33:24;24.95;;;14.82;;
1048;SDS011;513;51.444;7.196;2023-10-13T00:35:52;19.30;;;14.55;;
1048;SDS011;513;51.444;7.196;2023-10-13T00:38:22;19.20;;;13.97;;
1048;SDS011;513;51.444;7.196;2023-10-13T00:40:50;21.73;;;14.05;;
1048;SDS011;513;51.444;7.196;2023-10-13T00:43:20;20.65;;;13.80;;
1048;SDS011;513;51.444;7.196;2023-10-13T00:46:02;20.95;;;13.45;;
1048;SDS011;513;51.444;7.196;2023-10-13T00:48:33;19.17;;;14.52;;
1048;SDS011;513;51.444;7.196;2023-10-13T00:51:07;21.52;;;14.52;;
1048;SDS011;513;51.444;7.196;2023-10-13T00:53:37;21.35;;;14.88;;
1048;SDS011;513;51.444;7.196;2023-10-13T00:56:06;18.73;;;14.32;;
1048;SDS011;513;51.444;7.196;2023-10-13T00:58:33;21.23;;;13.98;;
1048;SDS011;513;51.444;7.196;2023-10-13T01:01:01;18.60;;;13.95;;
1048;SDS011;513;51.444;7.196;2023-10-13T01:03:42;21.17;;;14.00;;
1048;SDS011;513;51.444;7.196;2023-10-13T01:06:10;19.33;;;14.40;;
1048;SDS011;513;51.444;7.196;2023-10-13T01:08:37;20.95;;;14.23;;
1048;SDS011;513;51.444;7.196;2023-10-13T01:11:04;18.52;;;13.82;;
1048;SDS011;513;51.444;7.196;2023-10-13T01:13:32;18.88;;;13.82;;
1048;SDS011;513;51.444;7.196;2023-10-13T01:16:02;21.85;;;14.20;;
1048;SDS011;513;51.444;7.196;2023-10-13T01:18:29;23.67;;;13.90;;
1048;SDS011;513;51.444;7.196;2023-10-13T01:20:56;18.48;;;13.77;;
1048;SDS011;513;51.444;7.196;2023-10-13T01:23:26;20.70;;;14.18;;
1048;SDS011;513;51.444;7.196;2023-10-13T01:26:03;18.08;;;13.85;;
1048;SDS011;513;51.444;7.196;2023-10-13T01:28:30;20.15;;;14.02;;
1048;SDS011;513;51.444;7.196;2023-10-13T01:31:09;21.52;;;13.98;;
1048;SDS011;513;51.444;7.196;2023-10-13T01:33:36;19.77;;;12.77;;
1048;SDS011;513;51.444;7.196;2023-10-13T01:36:03;20.67;;;12.77;;
1048;SDS011;513;51.444;7.196;2023-10-13T01:38:33;18.67;;;12.68;;
1048;SDS011;513;51.444;7.196;2023-10-13T01:41:04;19.85;;;13.00;;
1048;SDS011;513;51.444;7.196;2023-10-13T01:43:30;18.85;;;12.85;;
1048;SDS011;513;51.444;7.196;2023-10-13T01:45:57;18.08;;;13.20;;
1048;SDS011;513;51.444;7.196;2023-10-13T01:48:23;17.10;;;12.30;;
1048;SDS011;513;51.444;7.196;2023-10-13T01:50:50;18.90;;;12.75;;
1048;SDS011;513;51.444;7.196;2023-10-13T01:53:20;20.13;;;12.93;;
1048;SDS011;513;51.444;7.196;2023-10-13T01:55:49;19.17;;;13.13;;
1048;SDS011;513;51.444;7.196;2023-10-13T01:58:15;19.67;;;13.65;;
1048;SDS011;513;51.444;7.196;2023-10-13T02:00:47;18.73;;;14.27;;
1048;SDS011;513;51.444;7.196;2023-10-13T02:03:14;18.90;;;13.77;;
1048;SDS011;513;51.444;7.196;2023-10-13T02:05:41;20.88;;;14.40;;
1048;SDS011;513;51.444;7.196;2023-10-13T02:08:12;19.25;;;14.27;;
1048;SDS011;513;51.444;7.196;2023-10-13T02:10:43;20.13;;;13.35;;
1048;SDS011;513;51.444;7.196;2023-10-13T02:13:12;22.23;;;14.18;;
1048;SDS011;513;51.444;7.196;2023-10-13T02:15:43;19.03;;;14.20;;
1048;SDS011;513;51.444;7.196;2023-10-13T02:18:09;18.85;;;14.45;;
1048;SDS011;513;51.444;7.196;2023-10-13T02:20:36;21.30;;;14.85;;
1048;SDS011;513;51.444;7.196;2023-10-13T02:23:07;21.50;;;14.73;;
1048;SDS011;513;51.444;7.196;2023-10-13T02:25:35;20.88;;;14.35;;
1048;SDS011;513;51.444;7.196;2023-10-13T02:28:08;19.37;;;14.03;;
1048;SDS011;513;51.444;7.196;2023-10-13T02:30:39;21.73;;;14.75;;
1048;SDS011;513;51.444;7.196;2023-10-13T02:33:09;22.35;;;15.40;;
1048;SDS011;513;51.444;7.196;2023-10-13T02:35:37;20.60;;;14.68;;
1048;SDS011;513;51.444;7.196;2023-10-13T02:38:06;20.77;;;14.80;;
1048;SDS011;513;51.444;7.196;2023-10-13T02:40:36;25.35;;;14.77;;
1048;SDS011;513;51.444;7.196;2023-10-13T02:43:03;21.70;;;14.45;;
1048;SDS011;513;51.444;7.196;2023-10-13T02:45:31;20.88;;;14.55;;
1048;SDS011;513;51.444;7.196;2023-10-13T02:47:58;20.50;;;14.15;;
1048;SDS011;513;51.444;7.196;2023-10-13T02:50:41;18.33;;;14.18;;
1048;SDS011;513;51.444;7.196;2023-10-13T02:53:09;18.63;;;13.67;;
1048;SDS011;513;51.444;7.196;2023-10-13T02:55:38;19.95;;;13.55;;
1048;SDS011;513;51.444;7.196;2023-10-13T02:58:04;20.30;;;12.95;;
1048;SDS011;513;51.444;7.196;2023-10-13T03:00:33;17.03;;;13.13;;
1048;SDS011;513;51.444;7.196;2023-10-13T03:03:06;17.25;;;13.27;;
1048;SDS011;513;51.444;7.196;2023-10-13T03:05:34;16.73;;;12.95;;
1048;SDS011;513;51.444;7.196;2023-10-13T03:08:04;19.25;;;12.90;;
1048;SDS011;513;51.444;7.196;2023-10-13T03:10:31;22.33;;;13.00;;
1048;SDS011;513;51.444;7.196;2023-10-13T03:12:58;20.50;;;12.90;;
1048;SDS011;513;51.444;7.196;2023-10-13T03:15:24;18.33;;;13.40;;
1048;SDS011;513;51.444;7.196;2023-10-13T03:17:55;21.13;;;13.00;;
1048;SDS011;513;51.444;7.196;2023-10-13T03:20:25;21.23;;;13.98;;
1048;SDS011;513;51.444;7.196;2023-10-13T03:22:56;17.42;;;13.70;;
1048;SDS011;513;51.444;7.196;2023-10-13T03:25:23;20.02;;;14.48;;
1048;SDS011;513;51.444;7.196;2023-10-13T03:27:54;20.33;;;14.60;;
1048;SDS011;513;51.444;7.196;2023-10-13T03:30:30;21.23;;;15.32;;
1048;SDS011;513;51.444;7.196;2023-10-13T03:33:01;21.08;;;15.02;;
1048;SDS011;513;51.444;7.196;2023-10-13T03:35:33;18.52;;;15.40;;
1048;SDS011;513;51.444;7.196;2023-10-13T03:38:04;23.38;;;16.60;;
1048;SDS011;513;51.444;7.196;2023-10-13T03:40:39;22.05;;;15.80;;
1048;SDS011;513;51.444;7.196;2023-10-13T03:43:07;21.15;;;15.68;;
1048;SDS011;513;51.444;7.196;2023-10-13T03:45:36;20.05;;;15.13;;
1048;SDS011;513;51.444;7.196;2023-10-13T03:48:04;24.15;;;16.48;;
1048;SDS011;513;51.444;7.196;2023-10-13T03:50:36;23.88;;;16.98;;
1048;SDS011;513;51.444;7.196;2023-10-13T03:53:11;24.63;;;17.63;;
1048;SDS011;513;51.444;7.196;2023-10-13T03:55:38;23.20;;;16.55;;
1048;SDS011;513;51.444;7.196;2023-10-13T03:58:05;25.30;;;16.63;;
1048;SDS011;513;51.444;7.196;2023-10-13T04:00:35;23.50;;;16.85;;
1048;SDS011;513;51.444;7.196;2023-10-13T04:03:03;25.42;;;17.45;;
1048;SDS011;513;51.444;7.196;2023-10-13T04:05:36;24.87;;;17.63;;
1048;SDS011;513;51.444;7.196;2023-10-13T04:08:06;23.83;;;16.70;;
1048;SDS011;513;51.444;7.196;2023-10-13T04:10:51;24.05;;;17.17;;
1048;SDS011;513;51.444;7.196;2023-10-13T04:13:36;22.58;;;16.75;;
1048;SDS011;513;51.444;7.196;2023-10-13T04:16:20;23.38;;;17.60;;
1048;SDS011;513;51.444;7.196;2023-10-13T04:19:12;24.47;;;16.97;;
1048;SDS011;513;51.444;7.196;2023-10-13T04:21:49;26.73;;;16.77;;
1048;SDS011;513;51.444;7.196;2023-10-13T04:24:23;20.63;;;16.27;;
1048;SDS011;513;51.444;7.196;2023-10-13T04:27:04;24.38;;;16.67;;
1048;SDS011;513;51.444;7.196;2023-10-13T04:29:49;23.73;;;17.23;;
1048;SDS011;513;51.444;7.196;2023-10-13T04:32:27;22.77;;;16.55;;
1048;SDS011;513;51.444;7.196;2023-10-13T04:34:54;25.52;;;16.98;;
1048;SDS011;513;51.444;7.196;2023-10-13T04:37:25;23.35;;;16.55;;
1048;SDS011;513;51.444;7.196;2023-10-13T04:39:55;24.45;;;17.25;;
1048;SDS011;513;51.444;7.196;2023-10-13T04:42:33;24.02;;;16.77;;
1048;SDS011;513;51.444;7.196;2023-10-13T04:45:16;25.05;;;16.85;;
1048;SDS011;513;51.444;7.196;2023-10-13T04:48:03;22.48;;;16.35;;
1048;SDS011;513;51.444;7.196;2023-10-13T04:50:44;27.85;;;17.42;;
1048;SDS011;513;51.444;7.196;2023-10-13T04:53:12;23.85;;;16.55;;
1048;SDS011;513;51.444;7.196;2023-10-13T04:55:59;25.63;;;16.55;;
1048;SDS011;513;51.444;7.196;2023-10-13T04:58:52;24.38;;;16.15;;
1048;SDS011;513;51.444;7.196;2023-10-13T05:01:36;22.98;;;15.13;;
1048;SDS011;513;51.444;7.196;2023-10-13T05:04:21;21.58;;;15.38;;
1048;SDS011;513;51.444;7.196;2023-10-13T05:07:03;22.48;;;15.55;;
1048;SDS011;513;51.444;7.196;2023-10-13T05:09:54;24.52;;;16.10;;
1048;SDS011;513;51.444;7.196;2023-10-13T05:12:42;23.45;;;16.25;;
1048;SDS011;513;51.444;7.196;2023-10-13T05:15:32;25.00;;;16.45;;
1048;SDS011;513;51.444;7.196;2023-10-13T05:18:17;21.35;;;15.88;;
1048;SDS011;513;51.444;7.196;2023-10-13T05:21:01;23.85;;;15.85;;
1048;SDS011;513;51.444;7.196;2023-10-13T05:23:46;24.27;;;15.60;;
1048;SDS011;513;51.444;7.196;2023-10-13T05:26:32;24.75;;;16.52;;
1048;SDS011;513;51.444;7.196;2023-10-13T05:29:28;23.15;;;16.23;;
1048;SDS011;513;51.444;7.196;2023-10-13T05:32:12;22.57;;;15.27;;
1048;SDS011;513;51.444;7.196;2023-10-13T05:34:57;24.00;;;15.43;;
1048;SDS011;513;51.444;7.196;2023-10-13T05:37:42;23.92;;;15.55;;
1048;SDS011;513;51.444;7.196;2023-10-13T05:40:27;25.02;;;16.58;;
1048;SDS011;513;51.444;7.196;2023-10-13T05:43:12;28.65;;;16.33;;
1048;SDS011;513;51.444;7.196;2023-10-13T05:46:00;25.02;;;16.13;;
1048;SDS011;513;51.444;7.196;2023-10-13T05:48:45;24.77;;;15.73;;
1048;SDS011;513;51.444;7.196;2023-10-13T05:51:48;22.80;;;15.02;;
1048;SDS011;513;51.444;7.196;2023-10-13T05:54:23;19.98;;;13.90;;
1048;SDS011;513;51.444;7.196;2023-10-13T05:57:07;19.83;;;14.68;;
1048;SDS011;513;51.444;7.196;2023-10-13T06:00:06;22.63;;;14.20;;
1048;SDS011;513;51.444;7.196;2023-10-13T06:02:51;19.43;;;13.30;;
1048;SDS011;513;51.444;7.196;2023-10-13T06:05:35;19.77;;;13.70;;
1048;SDS011;513;51.444;7.196;2023-10-13T06:08:22;19.98;;;14.45;;
1048;SDS011;513;51.444;7.196;2023-10-13T06:11:07;22.92;;;13.95;;
1048;SDS011;513;51.444;7.196;2023-10-13T06:13:52;18.88;;;13.55;;
1048;SDS011;513;51.444;7.196;2023-10-13T06:16:38;17.02;;;12.20;;
1048;SDS011;513;51.444;7.196;2023-10-13T06:19:22;20.58;;;12.25;;
1048;SDS011;513;51.444;7.196;2023-10-13T06:22:07;21.10;;;12.48;;
1048;SDS011;513;51.444;7.196;2023-10-13T06:24:51;20.13;;;12.23;;
1048;SDS011;513;51.444;7.196;2023-10-13T06:27:36;18.48;;;11.25;;
1048;SDS011;513;51.444;7.196;2023-10-13T06:30:20;17.85;;;11.55;;
1048;SDS011;513;51.444;7.196;2023-10-13T06:32:49;17.37;;;11.60;;
1048;SDS011;513;51.444;7.196;2023-10-13T06:35:16;17.60;;;10.85;;
1048;SDS011;513;51.444;7.196;2023-10-13T06:37:49;16.38;;;10.38;;
1048;SDS011;513;51.444;7.196;2023-10-13T06:40:16;18.67;;;11.15;;
1048;SDS011;513;51.444;7.196;2023-10-13T06:42:58;16.63;;;10.68;;
1048;SDS011;513;51.444;7.196;2023-10-13T06:45:37;15.90;;;11.05;;
1048;SDS011;513;51.444;7.196;2023-10-13T06:48:06;19.30;;;11.63;;
1048;SDS011;513;51.444;7.196;2023-10-13T06:50:36;17.73;;;12.13;;
1048;SDS011;513;51.444;7.196;2023-10-13T06:53:06;17.77;;;11.20;;
1048;SDS011;513;51.444;7.196;2023-10-13T06:55:37;21.17;;;13.27;;
1048;SDS011;513;51.444;7.196;2023-10-13T06:58:05;18.00;;;13.57;;
1048;SDS011;513;51.444;7.196;2023-10-13T07:00:38;21.08;;;13.48;;
1048;SDS011;513;51.444;7.196;2023-10-13T07:03:07;20.90;;;14.20;;
1048;SDS011;513;51.444;7.196;2023-10-13T07:05:42;21.73;;;13.43;;
1048;SDS011;513;51.444;7.196;2023-10-13T07:08:12;20.37;;;13.17;;
1048;SDS011;513;51.444;7.196;2023-10-13T07:10:47;18.88;;;13.10;;
1048;SDS011;513;51.444;7.196;2023-10-13T07:13:16;18.73;;;12.88;;
1048;SDS011;513;51.444;7.196;2023-10-13T07:15:44;20.73;;;13.33;;
1048;SDS011;513;51.444;7.196;2023-10-13T07:18:14;21.65;;;13.48;;
1048;SDS011;513;51.444;7.196;2023-10-13T07:20:42;16.83;;;12.73;;
1048;SDS011;513;51.444;7.196;2023-10-13T07:23:13;20.52;;;12.43;;
1048;SDS011;513;51.444;7.196;2023-10-13T07:25:51;21.60;;;11.82;;
1048;SDS011;513;51.444;7.196;2023-10-13T07:28:18;16.98;;;11.25;;
1048;SDS011;513;51.444;7.196;2023-10-13T07:30:45;18.77;;;11.00;;
1048;SDS011;513;51.444;7.196;2023-10-13T07:33:37;19.75;;;11.00;;
1048;SDS011;513;51.444;7.196;2023-10-13T07:36:06;18.83;;;10.32;;
1048;SDS011;513;51.444;7.196;2023-10-13T07:38:40;19.77;;;10.48;;
1048;SDS011;513;51.444;7.196;2023-10-13T07:41:08;18.50;;;10.57;;
1048;SDS011;513;51.444;7.196;2023-10-13T07:43:40;17.75;;;10.60;;
1048;SDS011;513;51.444;7.196;2023-10-13T07:46:07;17.88;;;9.88;;
1048;SDS011;513;51.444;7.196;2023-10-13T07:48:35;22.38;;;10.63;;
1048;SDS011;513;51.444;7.196;2023-10-13T07:51:05;18.98;;;10.00;;
1048;SDS011;513;51.444;7.196;2023-10-13T07:53:36;14.73;;;9.55;;
1048;SDS011;513;51.444;7.196;2023-10-13T07:56:05;14.63;;;9.38;;
1048;SDS011;513;51.444;7.196;2023-10-13T07:58:33;14.30;;;8.40;;
1048;SDS011;513;51.444;7.196;2023-10-13T08:01:12;19.63;;;8.30;;
1048;SDS011;513;51.444;7.196;2023-10-13T08:03:42;14.63;;;8.38;;
1048;SDS011;513;51.444;7.196;2023-10-13T08:06:12;15.97;;;8.20;;
1048;SDS011;513;51.444;7.196;2023-10-13T08:08:45;17.60;;;8.07;;
1048;SDS011;513;51.444;7.196;2023-10-13T08:11:15;15.48;;;7.97;;
1048;SDS011;513;51.444;7.196;2023-10-13T08:13:52;14.23;;;8.00;;
1048;SDS011;513;51.444;7.196;2023-10-13T08:16:21;18.38;;;8.05;;
1048;SDS011;513;51.444;7.196;2023-10-13T08:18:48;16.48;;;8.60;;
1048;SDS011;513;51.444;7.196;2023-10-13T08:21:17;18.15;;;7.93;;
1048;SDS011;513;51.444;7.196;2023-10-13T08:23:48;15.35;;;7.30;;
1048;SDS011;513;51.444;7.196;2023-10-13T08:26:27;17.98;;;7.80;;
1048;SDS011;513;51.444;7.196;2023-10-13T08:29:17;15.90;;;7.28;;
1048;SDS011;513;51.444;7.196;2023-10-13T08:32:02;16.45;;;6.75;;
1048;SDS011;513;51.444;7.196;2023-10-13T08:35:01;17.15;;;7.05;;
1048;SDS011;513;51.444;7.196;2023-10-13T08:37:49;19.15;;;7.03;;
1048;SDS011;513;51.444;7.196;2023-10-13T08:40:28;19.77;;;7.30;;
1048;SDS011;513;51.444;7.196;2023-10-13T08:43:22;16.17;;;7.32;;
1048;SDS011;513;51.444;7.196;2023-10-13T08:45:49;13.55;;;6.20;;
1048;SDS011;513;51.444;7.196;2023-10-13T08:48:23;16.85;;;6.70;;
1048;SDS011;513;51.444;7.196;2023-10-13T08:50:56;11.98;;;6.15;;
1048;SDS011;513;51.444;7.196;2023-10-13T08:53:32;16.00;;;6.55;;
1048;SDS011;513;51.444;7.196;2023-10-13T08:56:09;11.57;;;6.07;;
1048;SDS011;513;51.444;7.196;2023-10-13T08:58:43;13.95;;;5.85;;
1048;SDS011;513;51.444;7.196;2023-10-13T09:01:28;12.05;;;6.00;;
1048;SDS011;513;51.444;7.196;2023-10-13T09:04:04;17.77;;;6.67;;
1048;SDS011;513;51.444;7.196;2023-10-13T09:06:47;15.25;;;6.28;;
1048;SDS011;513;51.444;7.196;2023-10-13T09:09:27;15.50;;;5.85;;
1048;SDS011;513;51.444;7.196;2023-10-13T09:11:59;14.35;;;5.80;;
1048;SDS011;513;51.444;7.196;2023-10-13T09:14:35;14.77;;;6.05;;
1048;SDS011;513;51.444;7.196;2023-10-13T09:17:03;14.00;;;5.90;;
1048;SDS011;513;51.444;7.196;2023-10-13T09:19:47;11.70;;;5.93;;
1048;SDS011;513;51.444;7.196;2023-10-13T09:22:20;11.80;;;5.88;;
1048;SDS011;513;51.444;7.196;2023-10-13T09:24:52;16.52;;;6.00;;
1048;SDS011;513;51.444;7.196;2023-10-13T09:27:23;16.10;;;6.30;;
1048;SDS011;513;51.444;7.196;2023-10-13T09:29:55;13.03;;;5.83;;
1048;SDS011;513;51.444;7.196;2023-10-13T09:32:21;15.95;;;6.10;;
1048;SDS011;513;51.444;7.196;2023-10-13T09:34:48;17.83;;;5.73;;
1048;SDS011;513;51.444;7.196;2023-10-13T09:37:15;16.23;;;6.18;;
1048;SDS011;513;51.444;7.196;2023-10-13T09:39:46;16.30;;;5.87;;
1048;SDS011;513;51.444;7.196;2023-10-13T09:42:18;13.82;;;5.47;;
1048;SDS011;513;51.444;7.196;2023-10-13T09:44:48;12.98;;;5.63;;
1048;SDS011;513;51.444;7.196;2023-10-13T09:47:21;13.88;;;5.55;;
1048;SDS011;513;51.444;7.196;2023-10-13T09:49:55;15.25;;;6.05;;
1048;SDS011;513;51.444;7.196;2023-10-13T09:52:23;18.67;;;6.45;;
1048;SDS011;513;51.444;7.196;2023-10-13T09:54:53;15.77;;;5.70;;
1048;SDS011;513;51.444;7.196;2023-10-13T09:57:27;15.50;;;6.13;;
1048;SDS011;513;51.444;7.196;2023-10-13T10:00:00;17.20;;;5.70;;
1048;SDS011;513;51.444;7.196;2023-10-13T10:02:32;14.93;;;6.00;;
1048;SDS011;513;51.444;7.196;2023-10-13T10:05:00;16.17;;;5.75;;
1048;SDS011;513;51.444;7.196;2023-10-13T10:07:38;13.10;;;5.63;;
1048;SDS011;513;51.444;7.196;2023-10-13T10:10:05;13.25;;;5.80;;
1048;SDS011;513;51.444;7.196;2023-10-13T10:12:37;12.17;;;5.80;;
1048;SDS011;513;51.444;7.196;2023-10-13T10:15:09;14.45;;;6.10;;
1048;SDS011;513;51.444;7.196;2023-10-13T10:17:53;15.30;;;5.85;;
1048;SDS011;513;51.444;7.196;2023-10-13T10:20:27;14.07;;;6.40;;
1048;SDS011;513;51.444;7.196;2023-10-13T10:23:05;13.52;;;5.88;;
1048;SDS011;513;51.444;7.196;2023-10-13T10:25:35;12.52;;;5.80;;
1048;SDS011;513;51.444;7.196;2023-10-13T10:28:05;14.65;;;6.50;;
1048;SDS011;513;51.444;7.196;2023-10-13T10:30:33;11.97;;;6.20;;
1048;SDS011;513;51.444;7.196;2023-10-13T10:33:00;12.77;;;5.80;;
1048;SDS011;513;51.444;7.196;2023-10-13T10:35:33;12.30;;;6.10;;
1048;SDS011;513;51.444;7.196;2023-10-13T10:38:07;14.25;;;6.25;;
1048;SDS011;513;51.444;7.196;2023-10-13T10:40:48;15.38;;;6.05;;
1048;SDS011;513;51.444;7.196;2023-10-13T10:43:18;13.32;;;6.75;;
1048;SDS011;513;51.444;7.196;2023-10-13T10:45:46;13.95;;;6.28;;
1048;SDS011;513;51.444;7.196;2023-10-13T10:48:15;15.43;;;6.15;;
1048;SDS011;513;51.444;7.196;2023-10-13T10:50:51;14.90;;;7.80;;
1048;SDS011;513;51.444;7.196;2023-10-13T10:53:19;12.37;;;6.50;;
1048;SDS011;513;51.444;7.196;2023-10-13T10:56:03;13.65;;;6.47;;
1048;SDS011;513;51.444;7.196;2023-10-13T10:58:35;12.10;;;6.60;;
1048;SDS011;513;51.444;7.196;2023-10-13T11:01:09;12.52;;;6.90;;
1048;SDS011;513;51.444;7.196;2023-10-13T11:03:36;14.93;;;6.70;;
1048;SDS011;513;51.444;7.196;2023-10-13T11:06:06;14.27;;;7.07;;
1048;SDS011;513;51.444;7.196;2023-10-13T11:08:40;15.73;;;6.85;;
1048;SDS011;513;51.444;7.196;2023-10-13T11:11:09;15.97;;;7.10;;
1048;SDS011;513;51.444;7.196;2023-10-13T11:13:44;10.33;;;6.83;;
1048;SDS011;513;51.444;7.196;2023-10-13T11:16:19;14.82;;;6.53;;
1048;SDS011;513;51.444;7.196;2023-10-13T11:18:59;15.38;;;6.72;;
1048;SDS011;513;51.444;7.196;2023-10-13T11:21:28;13.13;;;7.50;;
1048;SDS011;513;51.444;7.196;2023-10-13T11:23:56;16.35;;;6.85;;
1048;SDS011;513;51.444;7.196;2023-10-13T11:26:32;14.98;;;7.47;;
1048;SDS011;513;51.444;7.196;2023-10-13T11:29:01;16.83;;;7.38;;
1048;SDS011;513;51.444;7.196;2023-10-13T11:31:35;12.60;;;7.00;;
1048;SDS011;513;51.444;7.196;2023-10-13T11:34:03;13.45;;;7.05;;
1048;SDS011;513;51.444;7.196;2023-10-13T11:36:31;14.07;;;6.90;;
1048;SDS011;513;51.444;7.196;2023-10-13T11:39:00;15.27;;;7.35;;
1048;SDS011;513;51.444;7.196;2023-10-13T11:41:27;14.50;;;6.80;;
1048;SDS011;513;51.444;7.196;2023-10-13T11:44:00;19.05;;;6.88;;
1048;SDS011;513;51.444;7.196;2023-10-13T11:46:48;14.73;;;6.80;;
1048;SDS011;513;51.444;7.196;2023-10-13T11:49:21;16.15;;;6.95;;
1048;SDS011;513;51.444;7.196;2023-10-13T11:51:59;15.52;;;6.70;;
1048;SDS011;513;51.444;7.196;2023-10-13T11:54:41;18.27;;;7.15;;
1048;SDS011;513;51.444;7.196;2023-10-13T11:57:08;20.02;;;6.85;;
1048;SDS011;513;51.444;7.196;2023-10-13T11:59:37;18.33;;;7.27;;
1048;SDS011;513;51.444;7.196;2023-10-13T12:02:11;12.75;;;6.45;;
1048;SDS011;513;51.444;7.196;2023-10-13T12:04:55;16.10;;;7.10;;
1048;SDS011;513;51.444;7.196;2023-10-13T12:07:24;17.80;;;6.72;;
1048;SDS011;513;51.444;7.196;2023-10-13T12:10:08;14.73;;;7.07;;
1048;SDS011;513;51.444;7.196;2023-10-13T12:12:41;14.00;;;7.03;;
1048;SDS011;513;51.444;7.196;2023-10-13T12:15:12;16.43;;;6.83;;
1048;SDS011;513;51.444;7.196;2023-10-13T12:17:50;12.32;;;6.60;;
1048;SDS011;513;51.444;7.196;2023-10-13T12:20:17;16.08;;;6.50;;
1048;SDS011;513;51.444;7.196;2023-10-13T12:22:57;19.67;;;7.10;;
1048;SDS011;513;51.444;7.196;2023-10-13T12:25:34;16.35;;;6.70;;
1048;SDS011;513;51.444;7.196;2023-10-13T12:28:09;16.50;;;6.33;;
1048;SDS011;513;51.444;7.196;2023-10-13T12:30:45;17.25;;;6.85;;
1048;SDS011;513;51.444;7.196;2023-10-13T12:33:16;15.75;;;6.68;;
1048;SDS011;513;51.444;7.196;2023-10-13T12:35:50;16.37;;;6.20;;
1048;SDS011;513;51.444;7.196;2023-10-13T12:38:28;16.90;;;6.82;;
1048;SDS011;513;51.444;7.196;2023-10-13T12:41:16;14.70;;;6.15;;
1048;SDS011;513;51.444;7.196;2023-10-13T12:44:01;16.23;;;6.32;;
1048;SDS011;513;51.444;7.196;2023-10-13T12:46:47;16.25;;;6.30;;
1048;SDS011;513;51.444;7.196;2023-10-13T12:49:32;16.80;;;6.07;;
1048;SDS011;513;51.444;7.196;2023-10-13T12:52:14;16.70;;;6.13;;
1048;SDS011;513;51.444;7.196;2023-10-13T12:54:44;12.50;;;5.90;;
1048;SDS011;513;51.444;7.196;2023-10-13T12:57:12;15.23;;;6.17;;
1048;SDS011;513;51.444;7.196;2023-10-13T12:59:39;12.25;;;6.22;;
1048;SDS011;513;51.444;7.196;2023-10-13T13:02:07;17.80;;;6.53;;
1048;SDS011;513;51.444;7.196;2023-10-13T13:04:40;12.93;;;6.03;;
1048;SDS011;513;51.444;7.196;2023-10-13T13:07:09;17.35;;;5.95;;
1048;SDS011;513;51.444;7.196;2023-10-13T13:09:38;14.70;;;6.13;;
1048;SDS011;513;51.444;7.196;2023-10-13T13:12:05;16.77;;;6.13;;
1048;SDS011;513;51.444;7.196;2023-10-13T13:14:32;14.38;;;5.68;;
1048;SDS011;513;51.444;7.196;2023-10-13T13:17:00;14.93;;;5.75;;
1048;SDS011;513;51.444;7.196;2023-10-13T13:19:31;16.25;;;6.15;;
1048;SDS011;513;51.444;7.196;2023-10-13T13:22:01;18.33;;;5.70;;
1048;SDS011;513;51.444;7.196;2023-10-13T13:24:29;16.45;;;5.55;;
1048;SDS011;513;51.444;7.196;2023-10-13T13:26:56;16.35;;;5.57;;
1048;SDS011;513;51.444;7.196;2023-10-13T13:29:27;11.77;;;5.40;;
1048;SDS011;513;51.444;7.196;2023-10-13T13:31:55;20.77;;;6.60;;
1048;SDS011;513;51.444;7.196;2023-10-13T13:34:22;16.77;;;5.57;;
1048;SDS011;513;51.444;7.196;2023-10-13T13:36:50;18.77;;;5.97;;
1048;SDS011;513;51.444;7.196;2023-10-13T13:39:18;15.93;;;5.97;;
1048;SDS011;513;51.444;7.196;2023-10-13T13:41:55;17.85;;;6.15;;
1048;SDS011;513;51.444;7.196;2023-10-13T13:44:23;17.67;;;5.70;;
1048;SDS011;513;51.444;7.196;2023-10-13T13:46:54;17.35;;;6.00;;
1048;SDS011;513;51.444;7.196;2023-10-13T13:49:22;15.98;;;5.68;;
1048;SDS011;513;51.444;7.196;2023-10-13T13:51:56;17.60;;;6.03;;
1048;SDS011;513;51.444;7.196;2023-10-13T13:54:29;20.00;;;5.90;;
1048;SDS011;513;51.444;7.196;2023-10-13T13:56:56;16.20;;;5.80;;
1048;SDS011;513;51.444;7.196;2023-10-13T13:59:23;19.80;;;5.97;;
1048;SDS011;513;51.444;7.196;2023-10-13T14:01:50;16.55;;;6.07;;
1048;SDS011;513;51.444;7.196;2023-10-13T14:04:18;16.52;;;6.03;;
1048;SDS011;513;51.444;7.196;2023-10-13T14:06:45;19.05;;;6.10;;
1048;SDS011;513;51.444;7.196;2023-10-13T14:09:13;15.25;;;5.90;;
1048;SDS011;513;51.444;7.196;2023-10-13T14:11:41;16.48;;;6.20;;
1048;SDS011;513;51.444;7.196;2023-10-13T14:14:26;17.33;;;6.18;;
1048;SDS011;513;51.444;7.196;2023-10-13T14:16:58;18.85;;;6.05;;
1048;SDS011;513;51.444;7.196;2023-10-13T14:19:31;18.65;;;5.72;;
1048;SDS011;513;51.444;7.196;2023-10-13T14:21:59;19.27;;;6.03;;
1048;SDS011;513;51.444;7.196;2023-10-13T14:24:32;22.02;;;6.28;;
1048;SDS011;513;51.444;7.196;2023-10-13T14:27:00;15.55;;;5.78;;
1048;SDS011;513;51.444;7.196;2023-10-13T14:29:34;19.02;;;6.13;;
1048;SDS011;513;51.444;7.196;2023-10-13T14:32:05;13.90;;;5.45;;
1048;SDS011;513;51.444;7.196;2023-10-13T14:34:32;15.07;;;5.95;;
1048;SDS011;513;51.444;7.196;2023-10-13T14:37:00;20.80;;;6.15;;
1048;SDS011;513;51.444;7.196;2023-10-13T14:39:29;19.30;;;6.13;;
1048;SDS011;513;51.444;7.196;2023-10-13T14:42:00;16.77;;;5.50;;
1048;SDS011;513;51.444;7.196;2023-10-13T14:44:31;17.83;;;5.85;;
1048;SDS011;513;51.444;7.196;2023-10-13T14:46:58;16.37;;;6.47;;
1048;SDS011;513;51.444;7.196;2023-10-13T14:49:25;18.38;;;5.97;;
1048;SDS011;513;51.444;7.196;2023-10-13T14:51:52;19.40;;;6.13;;
1048;SDS011;513;51.444;7.196;2023-10-13T14:54:21;18.55;;;6.07;;
1048;SDS011;513;51.444;7.196;2023-10-13T14:56:57;15.10;;;5.55;;
1048;SDS011;513;51.444;7.196;2023-10-13T14:59:26;17.30;;;5.95;;
1048;SDS011;513;51.444;7.196;2023-10-13T15:01:57;15.43;;;5.90;;
1048;SDS011;513;51.444;7.196;2023-10-13T15:04:25;18.63;;;5.97;;
1048;SDS011;513;51.444;7.196;2023-10-13T15:06:53;17.40;;;5.93;;
1048;SDS011;513;51.444;7.196;2023-10-13T15:09:21;16.60;;;5.93;;
1048;SDS011;513;51.444;7.196;2023-10-13T15:11:49;14.82;;;5.22;;
1048;SDS011;513;51.444;7.196;2023-10-13T15:14:18;15.47;;;5.60;;
1048;SDS011;513;51.444;7.196;2023-10-13T15:16:49;18.10;;;5.85;;
1048;SDS011;513;51.444;7.196;2023-10-13T15:19:17;16.73;;;5.43;;
1048;SDS011;513;51.444;7.196;2023-10-13T15:21:44;13.23;;;5.65;;
1048;SDS011;513;51.444;7.196;2023-10-13T15:24:14;14.88;;;5.63;;
1048;SDS011;513;51.444;7.196;2023-10-13T15:26:42;17.35;;;5.82;;
1048;SDS011;513;51.444;7.196;2023-10-13T15:29:13;24.08;;;5.88;;
1048;SDS011;513;51.444;7.196;2023-10-13T15:31:41;18.60;;;5.63;;
1048;SDS011;513;51.444;7.196;2023-10-13T15:34:20;17.77;;;5.40;;
1048;SDS011;513;51.444;7.196;2023-10-13T15:36:48;14.75;;;5.28;;
1048;SDS011;513;51.444;7.196;2023-10-13T15:39:19;14.95;;;5.20;;
1048;SDS011;513;51.444;7.196;2023-10-13T15:41:49;14.90;;;5.72;;
1048;SDS011;513;51.444;7.196;2023-10-13T15:44:18;14.30;;;5.60;;